Time;durP1;ratioP1;P1;durP2;ratioP2;P2;SDS_P1;SDS_P2;PMS_P1;PMS_P2;Temp;Humidity;BMP_temperature;BMP_pressure;BME280_temperature;BME280_humidity;BME280_pressure;Samples;Min_cycle;Max_cycle;Signal;HPM_P1;HPM_P2
2021/03/12 00:00:24;;;;;;;1999.90;999.90;;;;;;;5.70;85.78;96979.28;5020323;28;20107;-65
2021/03/12 00:02:50;;;;;;;1999.90;999.90;;;;;;;5.81;84.80;96969.59;5025293;28;20042;-65
2021/03/12 00:05:17;;;;;;;1999.90;999.90;;;;;;;5.80;85.64;96970.72;5018493;28;20049;-65
2021/03/12 00:07:43;;;;;;;1999.90;999.90;;;;;;;5.86;86.33;96985.06;5015748;28;20080;-67
2021/03/12 00:10:18;;;;;;;1999.90;999.90;;;;;;;5.65;88.00;96988.50;5024878;28;20054;-67
2021/03/12 00:12:45;;;;;;;1999.90;999.90;;;;;;;5.51;90.55;96987.88;5026665;28;20317;-67
2021/03/12 00:15:15;;;;;;;1999.90;999.90;;;;;;;5.50;90.63;96998.03;5020545;28;20463;-66
2021/03/12 00:17:42;;;;;;;1999.90;999.90;;;;;;;5.20;92.21;96989.69;5021560;28;20059;-67
2021/03/12 00:20:14;;;;;;;1999.90;999.90;;;;;;;5.29;91.92;97004.19;5016743;28;20050;-67
2021/03/12 00:22:41;;;;;;;1999.90;999.90;;;;;;;5.15;92.92;96995.34;5013155;28;20045;-66
2021/03/12 00:25:10;;;;;;;1999.90;999.90;;;;;;;4.99;93.55;97016.94;5018343;28;20394;-67
2021/03/12 00:27:37;;;;;;;1999.90;999.90;;;;;;;5.07;93.91;97029.81;5023686;28;20116;-67
2021/03/12 00:30:04;;;;;;;1999.90;999.90;;;;;;;4.93;93.94;97010.81;5024998;28;20057;-66
2021/03/12 00:32:31;;;;;;;1999.90;999.90;;;;;;;5.00;93.49;97004.03;5014519;28;20096;-66
2021/03/12 00:34:57;;;;;;;1999.90;999.90;;;;;;;4.95;93.87;96999.53;5019644;28;20049;-66
2021/03/12 00:37:23;;;;;;;1999.90;999.90;;;;;;;4.92;95.24;97006.44;5025638;28;20069;-67
2021/03/12 00:39:49;;;;;;;1999.90;999.90;;;;;;;5.02;94.80;96999.06;5023990;28;20467;-64
2021/03/12 00:42:16;;;;;;;1999.90;999.90;;;;;;;4.85;95.91;96970.50;5013392;28;20546;-64
2021/03/12 00:44:42;;;;;;;1999.90;999.90;;;;;;;5.07;95.95;96958.59;5020234;28;20049;-64
2021/03/12 00:47:08;;;;;;;1999.90;999.90;;;;;;;5.09;95.23;96933.59;5021472;28;20610;-64
2021/03/12 00:49:34;;;;;;;1999.90;999.90;;;;;;;4.98;95.59;96959.75;5020470;28;20466;-64
2021/03/12 00:52:01;;;;;;;1999.90;999.90;;;;;;;5.35;94.50;96963.72;5019040;28;20042;-64
2021/03/12 00:54:27;;;;;;;1999.90;999.90;;;;;;;5.42;94.62;96968.72;5021235;28;20497;-64
2021/03/12 00:56:53;;;;;;;1999.90;999.90;;;;;;;5.47;93.18;96971.28;5023848;28;20045;-64
2021/03/12 00:59:19;;;;;;;1999.90;999.90;;;;;;;5.28;93.98;96972.47;5019371;28;20045;-64
2021/03/12 01:01:45;;;;;;;1999.90;999.90;;;;;;;5.24;94.48;96971.50;5010966;28;20049;-64
2021/03/12 01:04:11;;;;;;;1999.90;999.90;;;;;;;5.51;93.63;96966.75;5021241;28;20172;-64
2021/03/12 01:06:37;;;;;;;1999.90;999.90;;;;;;;5.55;93.03;96964.16;5023266;28;20096;-64
2021/03/12 01:09:05;;;;;;;1999.90;999.90;;;;;;;5.61;92.45;96949.97;5020222;28;20092;-64
2021/03/12 01:11:32;;;;;;;1999.90;999.90;;;;;;;5.58;92.57;96955.28;5016351;28;20496;-64
2021/03/12 01:13:58;;;;;;;1999.90;999.90;;;;;;;5.64;92.39;96949.31;5022103;28;20053;-64
2021/03/12 01:16:24;;;;;;;1999.90;999.90;;;;;;;5.60;91.90;96948.34;5019595;28;20063;-64
2021/03/12 01:18:50;;;;;;;1999.90;999.90;;;;;;;5.39;92.92;96941.94;5019230;28;20467;-64
2021/03/12 01:21:17;;;;;;;1999.90;999.90;;;;;;;5.22;94.13;96948.28;5018856;28;20110;-64
2021/03/12 01:23:44;;;;;;;1999.90;999.90;;;;;;;5.22;94.22;96943.59;5017826;28;20493;-64
2021/03/12 01:26:10;;;;;;;1999.90;999.90;;;;;;;5.37;93.55;96927.75;5022063;28;20055;-64
2021/03/12 01:28:37;;;;;;;1999.90;999.90;;;;;;;5.68;92.38;96932.19;5018079;28;20049;-64
2021/03/12 01:31:03;;;;;;;1999.90;999.90;;;;;;;5.92;91.44;96942.59;5018621;28;20099;-64
2021/03/12 01:33:30;;;;;;;1999.90;999.90;;;;;;;5.74;91.28;96939.91;5020459;28;20068;-64
2021/03/12 01:35:56;;;;;;;1999.90;999.90;;;;;;;5.50;91.87;96959.66;5022107;28;20057;-64
2021/03/12 01:38:22;;;;;;;1999.90;999.90;;;;;;;5.68;92.25;96933.00;5019487;28;20058;-64
2021/03/12 01:40:49;;;;;;;1999.90;999.90;;;;;;;5.49;93.15;96943.53;5021396;28;20111;-64
2021/03/12 01:43:17;;;;;;;1999.90;999.90;;;;;;;5.59;92.77;96919.31;5014079;28;20444;-64
2021/03/12 01:45:46;;;;;;;1999.90;999.90;;;;;;;5.54;92.82;96913.19;5024864;28;20053;-64
2021/03/12 01:48:17;;;;;;;1999.90;999.90;;;;;;;5.59;93.05;96929.47;5015538;28;20302;-65
2021/03/12 01:50:49;;;;;;;1999.90;999.90;;;;;;;5.55;93.34;96928.53;5019538;28;20057;-64
2021/03/12 01:53:16;;;;;;;;;;;;;;;5.29;94.40;96926.66;5022591;28;20042;-64
2021/03/12 01:55:43;;;;;;;1999.90;999.90;;;;;;;5.52;94.59;96924.47;5015209;28;19978;-64
2021/03/12 01:58:10;;;;;;;1999.90;999.90;;;;;;;5.67;93.10;96920.41;5022852;28;20099;-64
2021/03/12 02:00:36;;;;;;;1999.90;999.90;;;;;;;5.87;92.77;96924.38;5015388;28;20580;-64
2021/03/12 02:03:07;;;;;;;1999.90;999.90;;;;;;;5.44;94.42;96923.38;5019333;28;20057;-64
2021/03/12 02:05:35;;;;;;;1999.90;999.90;;;;;;;5.34;94.43;96923.72;5021766;28;20080;-64
2021/03/12 02:08:03;;;;;;;1999.90;999.90;;;;;;;5.59;93.78;96911.06;4999061;28;20042;-64
2021/03/12 02:10:30;;;;;;;1999.90;999.90;;;;;;;5.61;94.31;96906.09;5019538;28;20172;-64
2021/03/12 02:13:32;;;;;;;1999.90;999.90;;;;;;;5.35;95.38;96897.16;5018780;28;20056;-64
2021/03/12 02:16:38;;;;;;;1999.90;999.90;;;;;;;5.44;95.19;96886.94;5023868;28;20045;-65
2021/03/12 02:19:36;;;;;;;1999.90;999.90;;;;;;;5.74;93.30;96885.03;5024193;28;20168;-64
2021/03/12 02:22:05;;;;;;;1999.90;999.90;;;;;;;5.42;94.49;96876.31;5020091;28;20053;-65
2021/03/12 02:24:34;;;;;;;1999.90;999.90;;;;;;;5.62;94.28;96891.22;5020348;28;20060;-64
2021/03/12 02:27:13;;;;;;;1999.90;999.90;;;;;;;5.63;93.44;96898.31;5021886;28;20057;-65
2021/03/12 02:29:45;;;;;;;1999.90;999.90;;;;;;;5.32;95.23;96901.34;5014093;28;20049;-64
2021/03/12 02:32:16;;;;;;;1999.90;999.90;;;;;;;5.37;95.65;96894.88;5020726;28;20042;-64
2021/03/12 02:34:45;;;;;;;1999.90;999.90;;;;;;;5.37;95.58;96900.34;5034287;28;20045;-64
2021/03/12 02:37:14;;;;;;;1999.90;999.90;;;;;;;5.41;95.57;96896.63;5018393;28;20050;-65
2021/03/12 02:39:50;;;;;;;1999.90;999.90;;;;;;;5.52;95.35;96891.59;5022094;28;20099;-65
2021/03/12 02:42:20;;;;;;;1999.90;999.90;;;;;;;5.34;95.73;96901.81;5022942;28;20069;-65
2021/03/12 02:44:48;;;;;;;1999.90;999.90;;;;;;;5.38;95.81;96896.50;5023732;28;20433;-65
2021/03/12 02:47:22;;;;;;;1999.90;999.90;;;;;;;5.46;95.73;96909.34;5017965;28;20052;-65
2021/03/12 02:49:50;;;;;;;1999.90;999.90;;;;;;;5.59;95.18;96900.09;5014913;28;20088;-65
2021/03/12 02:52:18;;;;;;;1999.90;999.90;;;;;;;5.77;94.40;96886.34;5021834;28;20046;-65
2021/03/12 02:54:45;;;;;;;1999.90;999.90;;;;;;;5.84;93.32;96883.88;5021915;28;20061;-65
2021/03/12 02:57:23;;;;;;;1999.90;999.90;;;;;;;5.68;93.36;96915.75;5020393;28;20046;-65
2021/03/12 02:59:53;;;;;;;1999.90;999.90;;;;;;;5.62;93.92;96904.94;5021498;28;20050;-65
2021/03/12 03:02:25;;;;;;;1999.90;999.90;;;;;;;5.27;95.43;96910.53;5020961;28;20050;-65
2021/03/12 03:04:54;;;;;;;1999.90;999.90;;;;;;;5.37;96.28;96916.81;5022459;28;20050;-65
2021/03/12 03:07:21;;;;;;;1999.90;999.90;;;;;;;5.25;96.37;96914.72;5020894;28;20054;-65
2021/03/12 03:09:49;;;;;;;1999.90;999.90;;;;;;;5.53;95.62;96904.16;5021660;28;20292;-65
2021/03/12 03:12:18;;;;;;;1999.90;999.90;;;;;;;5.46;95.27;96912.09;5022793;28;20041;-65
2021/03/12 03:14:50;;;;;;;1999.90;999.90;;;;;;;5.44;95.23;96909.69;5024315;28;20489;-65
2021/03/12 03:17:18;;;;;;;1999.90;999.90;;;;;;;5.43;95.94;96918.22;5016994;28;20063;-65
2021/03/12 03:19:48;;;;;;;1999.90;999.90;;;;;;;5.15;96.37;96926.03;5007268;28;20053;-65
2021/03/12 03:22:17;;;;;;;1999.90;999.90;;;;;;;4.87;98.41;96934.63;5024580;28;20488;-65
2021/03/12 03:24:43;;;;;;;1999.90;999.90;;;;;;;4.81;99.25;96939.44;5027290;28;20053;-65
2021/03/12 03:27:11;;;;;;;1999.90;999.90;;;;;;;4.87;99.36;96924.47;5024725;28;20065;-65
2021/03/12 03:29:37;;;;;;;1999.90;999.90;;;;;;;4.84;99.87;96925.09;5024408;28;20053;-64
2021/03/12 03:32:04;;;;;;;1999.90;999.90;;;;;;;5.12;99.18;96949.41;5019799;28;20049;-65
2021/03/12 03:34:31;;;;;;;1999.90;999.90;;;;;;;5.03;99.46;96956.81;5022460;28;20136;-65
2021/03/12 03:36:57;;;;;;;1999.90;999.90;;;;;;;5.14;99.01;96960.06;5019388;28;20072;-65
2021/03/12 03:39:23;;;;;;;1999.90;999.90;;;;;;;5.17;98.37;96968.44;5024148;28;20058;-64
2021/03/12 03:41:53;;;;;;;1999.90;999.90;;;;;;;5.18;98.25;96981.00;5016682;28;20046;-65
2021/03/12 03:44:24;;;;;;;1999.90;999.90;;;;;;;5.27;97.68;96983.75;5021325;28;20041;-65
2021/03/12 03:46:54;;;;;;;1999.90;999.90;;;;;;;5.27;97.56;96984.53;5026197;28;20045;-65
2021/03/12 03:49:21;;;;;;;1999.90;999.90;;;;;;;5.27;98.00;96995.50;5017175;28;20129;-65
2021/03/12 03:51:48;;;;;;;1999.90;999.90;;;;;;;5.67;96.20;97001.88;5024535;28;20041;-65
2021/03/12 03:54:20;;;;;;;1999.90;999.90;;;;;;;5.49;96.41;97001.91;5024725;28;20045;-65
2021/03/12 03:56:48;;;;;;;1999.90;999.90;;;;;;;5.65;95.81;97005.75;5022317;28;20109;-65
2021/03/12 03:59:15;;;;;;;1999.90;999.90;;;;;;;5.88;95.41;96996.50;5028625;28;20046;-65
2021/03/12 04:01:42;;;;;;;1999.90;999.90;;;;;;;6.05;93.82;97001.16;5023273;28;20111;-65
2021/03/12 04:04:10;;;;;;;1999.90;999.90;;;;;;;5.87;93.68;97008.63;5025164;28;20132;-65
2021/03/12 04:06:37;;;;;;;1999.90;999.90;;;;;;;6.16;93.17;97007.88;5022771;28;20045;-65
2021/03/12 04:09:04;;;;;;;1999.90;999.90;;;;;;;6.29;92.21;97001.38;5035237;28;20060;-65
2021/03/12 04:11:33;;;;;;;1999.90;999.90;;;;;;;6.18;92.52;97005.63;5027405;28;20575;-65
2021/03/12 04:14:00;;;;;;;1999.90;999.90;;;;;;;6.22;92.09;97001.06;5022039;28;20065;-65
2021/03/12 04:16:27;;;;;;;1999.90;999.90;;;;;;;5.97;92.90;96995.38;5028236;28;20049;-65
2021/03/12 04:18:54;;;;;;;1999.90;999.90;;;;;;;6.35;92.02;96994.53;5024140;28;20460;-65
2021/03/12 04:21:21;;;;;;;1999.90;999.90;;;;;;;6.14;91.48;96982.72;5024369;28;20501;-65
2021/03/12 04:23:48;;;;;;;1999.90;999.90;;;;;;;6.41;90.91;96983.38;5022256;28;20423;-65
2021/03/12 04:26:15;;;;;;;1999.90;999.90;;;;;;;6.45;89.76;96978.84;5022810;28;20111;-65
2021/03/12 04:28:41;;;;;;;1999.90;999.90;;;;;;;6.33;89.70;96977.63;5025689;28;20057;-66
2021/03/12 04:31:08;;;;;;;1999.90;999.90;;;;;;;5.76;92.47;96972.50;5022273;28;20394;-65
2021/03/12 04:33:35;;;;;;;1999.90;999.90;;;;;;;5.97;91.56;96959.69;5015607;28;20049;-65
2021/03/12 04:36:02;;;;;;;1999.90;999.90;;;;;;;5.98;91.17;96957.75;5021880;28;20076;-65
2021/03/12 04:38:29;;;;;;;1999.90;999.90;;;;;;;5.97;90.81;96956.97;5021668;28;20559;-65
2021/03/12 04:40:56;;;;;;;1999.90;999.90;;;;;;;6.27;88.95;96953.44;5017475;28;20061;-65
2021/03/12 04:43:23;;;;;;;1999.90;999.90;;;;;;;6.27;88.15;96959.72;5019321;28;20041;-65
2021/03/12 04:45:50;;;;;;;1999.90;999.90;;;;;;;6.34;87.93;96968.25;5020248;28;20090;-65
2021/03/12 04:48:17;;;;;;;1999.90;999.90;;;;;;;6.44;87.58;96967.03;5021977;28;20045;-65
2021/03/12 04:50:44;;;;;;;1999.90;999.90;;;;;;;6.28;87.76;96968.75;5022636;28;20049;-65
2021/03/12 04:53:11;;;;;;;1999.90;999.90;;;;;;;6.23;87.96;96958.78;5023684;28;20046;-65
2021/03/12 04:55:37;;;;;;;1999.90;999.90;;;;;;;6.52;86.70;96957.16;5022640;28;20053;-65
2021/03/12 04:58:03;;;;;;;1999.90;999.90;;;;;;;6.70;86.21;96950.41;5026155;28;20238;-65
2021/03/12 05:00:31;;;;;;;1999.90;999.90;;;;;;;6.70;85.87;96955.09;5028878;28;20453;-66
2021/03/12 05:02:59;;;;;;;1999.90;999.90;;;;;;;6.84;85.12;96954.81;5019549;28;20069;-65
2021/03/12 05:05:27;;;;;;;1999.90;999.90;;;;;;;6.74;85.03;96971.72;5012592;28;20055;-65
2021/03/12 05:07:53;;;;;;;1999.90;999.90;;;;;;;6.66;85.39;96976.94;5014399;28;20067;-65
2021/03/12 05:10:20;;;;;;;1999.90;999.90;;;;;;;6.70;85.47;96988.88;5017871;28;20061;-65
2021/03/12 05:12:46;;;;;;;1999.90;999.90;;;;;;;7.03;84.13;97001.88;5018773;28;20056;-65
2021/03/12 05:15:24;;;;;;;1999.90;999.90;;;;;;;6.99;83.71;97025.66;5016327;28;20053;-65
2021/03/12 05:17:50;;;;;;;1999.90;999.90;;;;;;;6.77;84.26;97036.97;5020461;28;20119;-65
2021/03/12 05:20:16;;;;;;;1999.90;999.90;;;;;;;6.40;85.50;97033.94;5019488;28;20106;-65
2021/03/12 05:22:43;;;;;;;1999.90;999.90;;;;;;;6.41;86.29;97052.03;5017947;28;20049;-66
2021/03/12 05:25:09;;;;;;;1999.90;999.90;;;;;;;6.64;85.74;97047.88;5019324;28;20049;-65
2021/03/12 05:27:35;;;;;;;1999.90;999.90;;;;;;;6.05;87.19;97043.13;5018382;28;20103;-65
2021/03/12 05:30:02;;;;;;;1999.90;999.90;;;;;;;5.91;88.96;97051.53;5020886;28;20532;-65
2021/03/12 05:32:28;;;;;;;1999.90;999.90;;;;;;;5.71;90.38;97052.22;5017306;28;20053;-65
2021/03/12 05:34:54;;;;;;;1999.90;999.90;;;;;;;5.98;90.28;97057.34;5017655;28;20060;-65
2021/03/12 05:37:21;;;;;;;1999.90;999.90;;;;;;;5.79;90.97;97052.19;5012428;28;20453;-65
2021/03/12 05:39:47;;;;;;;1999.90;999.90;;;;;;;6.16;90.74;97057.28;5014560;28;20053;-65
2021/03/12 05:42:13;;;;;;;1999.90;999.90;;;;;;;5.82;91.49;97059.78;5016490;28;20061;-65
2021/03/12 05:44:39;;;;;;;1999.90;999.90;;;;;;;6.07;91.47;97062.00;5018172;28;20049;-65
2021/03/12 05:47:06;;;;;;;1999.90;999.90;;;;;;;5.60;93.38;97066.25;5019656;28;20045;-65
2021/03/12 05:49:34;;;;;;;1999.90;999.90;;;;;;;5.61;94.00;97080.78;5017123;28;20049;-65
2021/03/12 05:52:00;;;;;;;1999.90;999.90;;;;;;;5.50;95.17;97085.78;5019893;28;20056;-65
2021/03/12 05:54:27;;;;;;;1999.90;999.90;;;;;;;5.61;95.20;97086.25;5018687;28;20412;-65
2021/03/12 05:56:53;;;;;;;1999.90;999.90;;;;;;;5.74;94.55;97095.44;5014051;28;20456;-65
2021/03/12 05:59:20;;;;;;;1999.90;999.90;;;;;;;5.89;94.00;97094.94;5018083;28;20060;-65
2021/03/12 06:01:46;;;;;;;1999.90;999.90;;;;;;;6.03;93.62;97104.94;5014981;28;20725;-65
2021/03/12 06:04:12;;;;;;;1999.90;999.90;;;;;;;5.69;93.76;97110.13;5018437;28;20049;-65
2021/03/12 06:06:39;;;;;;;1999.90;999.90;;;;;;;5.60;93.93;97112.09;5018928;28;20520;-65
2021/03/12 06:09:05;;;;;;;1999.90;999.90;;;;;;;5.96;93.20;97111.72;5015276;28;20107;-65
2021/03/12 06:11:32;;;;;;;1999.90;999.90;;;;;;;6.19;91.20;97121.72;5012794;28;20057;-65
2021/03/12 06:13:59;;;;;;;1999.90;999.90;;;;;;;6.04;90.56;97132.06;5015760;28;20053;-65
2021/03/12 06:16:26;;;;;;;1999.90;999.90;;;;;;;5.80;90.83;97138.03;5014307;28;20053;-66
2021/03/12 06:19:15;;;;;;;1999.90;999.90;;;;;;;6.04;89.33;97132.06;5016900;28;20057;-66
2021/03/12 06:21:47;;;;;;;1999.90;999.90;;;;;;;6.04;88.50;97136.75;5019164;28;20567;-66
2021/03/12 06:24:25;;;;;;;1999.90;999.90;;;;;;;6.11;87.54;97137.06;5015450;28;20057;-66
2021/03/12 06:26:51;;;;;;;1999.90;999.90;;;;;;;6.28;86.31;97128.81;5015714;28;20057;-66
2021/03/12 06:29:18;;;;;;;1999.90;999.90;;;;;;;6.41;85.17;97135.22;5017107;28;20049;-66
2021/03/12 06:31:51;;;;;;;1999.90;999.90;;;;;;;6.31;84.81;97136.38;5019612;28;20050;-66
2021/03/12 06:34:18;;;;;;;1999.90;999.90;;;;;;;6.49;84.44;97152.78;5016958;28;20046;-66
2021/03/12 06:36:44;;;;;;;1999.90;999.90;;;;;;;6.67;83.38;97156.31;5015890;28;20057;-67
2021/03/12 06:39:11;;;;;;;1999.90;999.90;;;;;;;6.72;83.19;97155.31;5019551;28;20060;-66
2021/03/12 06:41:47;;;;;;;1999.90;999.90;;;;;;;6.48;83.43;97162.19;5014921;28;20116;-66
2021/03/12 06:44:33;;;;;;;1999.90;999.90;;;;;;;6.45;83.50;97158.13;5015553;28;20057;-66
2021/03/12 06:47:00;;;;;;;1999.90;999.90;;;;;;;6.34;83.96;97163.19;5019438;28;20057;-66
2021/03/12 06:49:27;;;;;;;1999.90;999.90;;;;;;;6.36;83.82;97154.63;5019034;28;20057;-65
2021/03/12 06:51:53;;;;;;;1999.90;999.90;;;;;;;6.52;83.84;97163.13;5004540;28;20053;-66
2021/03/12 06:54:19;;;;;;;1999.90;999.90;;;;;;;6.35;83.65;97163.97;5016408;28;20417;-66
2021/03/12 06:56:45;;;;;;;1999.90;999.90;;;;;;;6.56;83.32;97153.09;5017374;28;20099;-66
2021/03/12 06:59:13;;;;;;;1999.90;999.90;;;;;;;6.72;82.84;97161.59;5009262;28;20482;-66
2021/03/12 07:01:39;;;;;;;1999.90;999.90;;;;;;;6.65;82.84;97167.59;5035175;28;20103;-66
2021/03/12 07:04:14;;;;;;;1999.90;999.90;;;;;;;6.66;83.38;97171.97;5012463;28;20057;-66
2021/03/12 07:06:48;;;;;;;1999.90;999.90;;;;;;;6.84;83.30;97169.16;5014925;28;20377;-66
2021/03/12 07:09:16;;;;;;;1999.90;999.90;;;;;;;6.76;83.15;97167.22;5017163;28;20142;-66
2021/03/12 07:11:42;;;;;;;1999.90;999.90;;;;;;;6.92;83.00;97173.78;5016500;28;20053;-66
2021/03/12 07:14:09;;;;;;;1999.90;999.90;;;;;;;6.98;82.79;97185.41;5016695;28;20053;-66
2021/03/12 07:16:54;;;;;;;1999.90;999.90;;;;;;;7.34;81.82;97195.91;5011075;28;20133;-66
2021/03/12 07:19:20;;;;;;;1999.90;999.90;;;;;;;7.39;81.63;97195.69;5013936;28;20497;-66
2021/03/12 07:21:49;;;;;;;1999.90;999.90;;;;;;;7.26;81.94;97195.94;5014294;28;20413;-66
2021/03/12 07:24:20;;;;;;;1999.90;999.90;;;;;;;7.19;81.62;97196.47;5016281;28;20210;-66
2021/03/12 07:26:51;;;;;;;;;;;;;;;7.23;81.99;97203.75;5013962;28;20064;-66
2021/03/12 07:29:18;;;;;;;1999.90;999.90;;;;;;;7.48;81.82;97203.09;5020868;28;19932;-66
2021/03/12 07:31:49;;;;;;;1999.90;999.90;;;;;;;7.40;81.78;97204.78;5018303;28;20481;-66
2021/03/12 07:34:20;;;;;;;1999.90;999.90;;;;;;;6.76;84.24;97216.69;5020524;28;20447;-65
2021/03/12 07:36:49;;;;;;;1999.90;999.90;;;;;;;6.40;85.85;97217.91;5014872;28;20402;-66
2021/03/12 07:39:30;;;;;;;1999.90;999.90;;;;;;;5.92;87.04;97223.25;5018172;28;20072;-65
2021/03/12 07:41:57;;;;;;;;;;;;;;;5.72;88.27;97219.22;5016311;28;20065;-65
2021/03/12 07:44:46;;;;;;;1999.90;999.90;;;;;;;5.89;88.92;97218.41;5016792;28;20475;-65
2021/03/12 07:47:22;;;;;;;1999.90;999.90;;;;;;;5.92;88.98;97225.19;5018262;28;20050;-65
2021/03/12 07:49:48;;;;;;;1999.90;999.90;;;;;;;5.82;89.51;97231.78;5019487;28;20592;-65
2021/03/12 07:52:15;;;;;;;1999.90;999.90;;;;;;;5.56;90.96;97234.50;5022928;28;20148;-65
2021/03/12 07:54:41;;;;;;;1999.90;999.90;;;;;;;5.90;90.17;97235.69;5019165;28;20052;-65
2021/03/12 07:57:12;;;;;;;1999.90;999.90;;;;;;;6.02;89.86;97237.81;5020224;28;20058;-65
2021/03/12 07:59:44;;;;;;;1999.90;999.90;;;;;;;5.71;89.34;97244.22;5023908;28;20455;-65
2021/03/12 08:02:11;;;;;;;1999.90;999.90;;;;;;;5.45;89.15;97248.53;5021454;28;20054;-65
2021/03/12 08:04:37;;;;;;;1999.90;999.90;;;;;;;5.67;88.68;97254.22;5019681;28;20089;-65
2021/03/12 08:07:18;;;;;;;1999.90;999.90;;;;;;;5.63;88.36;97262.28;5019151;28;20535;-65
2021/03/12 08:09:46;;;;;;;1999.90;999.90;;;;;;;5.67;87.70;97259.69;5019964;28;20300;-65
2021/03/12 08:12:39;;;;;;;1999.90;999.90;;;;;;;5.90;87.52;97268.63;5013963;28;20112;-65
2021/03/12 08:15:09;;;;;;;1999.90;999.90;;;;;;;5.81;87.04;97265.84;5020159;28;20049;-65
2021/03/12 08:17:46;;;;;;;1999.90;999.90;;;;;;;5.88;86.57;97271.69;5019328;28;20060;-65
2021/03/12 08:20:25;;;;;;;1999.90;999.90;;;;;;;6.01;86.64;97280.09;5022597;28;20119;-65
2021/03/12 08:22:52;;;;;;;1999.90;999.90;;;;;;;6.23;85.45;97282.69;5015115;28;20100;-65
2021/03/12 08:25:40;;;;;;;1999.90;999.90;;;;;;;6.19;85.43;97276.22;5022623;28;20778;-65
2021/03/12 08:28:06;;;;;;;1999.90;999.90;;;;;;;6.20;85.02;97290.78;5020509;28;20448;-64
2021/03/12 08:30:35;;;;;;;1999.90;999.90;;;;;;;6.37;84.57;97300.94;5020147;28;20057;-64
2021/03/12 08:33:04;;;;;;;1999.90;999.90;;;;;;;6.39;84.02;97298.69;5015850;28;20053;-64
2021/03/12 08:35:39;;;;;;;1999.90;999.90;;;;;;;6.55;83.86;97305.31;5018063;28;20128;-65
2021/03/12 08:38:26;;;;;;;1999.90;999.90;;;;;;;6.63;82.89;97318.22;5019357;28;20057;-64
2021/03/12 08:41:12;;;;;;;1999.90;999.90;;;;;;;6.25;82.48;97312.56;5017750;28;20756;-65
2021/03/12 08:43:55;;;;;;;1999.90;999.90;;;;;;;6.30;82.53;97332.44;5019728;28;20281;-64
2021/03/12 08:46:28;;;;;;;1999.90;999.90;;;;;;;6.49;82.42;97334.03;5016447;28;20413;-64
2021/03/12 08:48:57;;;;;;;1999.90;999.90;;;;;;;7.06;81.72;97338.50;5021995;28;20361;-65
2021/03/12 08:51:30;;;;;;;1999.90;999.90;;;;;;;6.76;79.43;97338.41;5016102;28;20508;-65
2021/03/12 08:53:59;;;;;;;1999.90;999.90;;;;;;;6.57;79.96;97346.19;5019966;28;20055;-64
2021/03/12 08:56:28;;;;;;;1999.90;999.90;;;;;;;6.76;78.99;97354.88;5015751;28;20056;-65
2021/03/12 08:58:55;;;;;;;1999.90;999.90;;;;;;;6.56;78.58;97345.34;5021490;28;20353;-64
2021/03/12 09:01:24;;;;;;;1999.90;999.90;;;;;;;6.78;78.83;97338.88;5017022;28;20122;-64
2021/03/12 09:03:52;;;;;;;1999.90;999.90;;;;;;;7.28;76.96;97342.97;5019660;28;20132;-65
2021/03/12 09:06:21;;;;;;;1999.90;999.90;;;;;;;7.86;75.76;97359.06;5020803;28;20057;-65
2021/03/12 09:09:05;;;;;;;1999.90;999.90;;;;;;;7.92;74.19;97357.75;5020016;28;20049;-64
2021/03/12 09:11:32;;;;;;;1999.90;999.90;;;;;;;8.04;74.09;97368.03;5018840;28;20341;-65
2021/03/12 09:14:00;;;;;;;1999.90;999.90;;;;;;;8.19;73.01;97372.19;5015145;28;20049;-65
2021/03/12 09:16:29;;;;;;;1999.90;999.90;;;;;;;8.11;73.30;97376.56;5030019;28;20064;-65
2021/03/12 09:19:00;;;;;;;1999.90;999.90;;;;;;;7.91;74.21;97369.91;5016602;28;20076;-65
2021/03/12 09:21:28;;;;;;;1999.90;999.90;;;;;;;8.15;73.83;97388.53;5018375;28;20045;-65
2021/03/12 09:24:01;;;;;;;1999.90;999.90;;;;;;;8.14;73.40;97391.63;5016062;28;20041;-65
2021/03/12 09:26:32;;;;;;;1999.90;999.90;;;;;;;8.38;72.70;97389.06;5014684;28;20072;-65
2021/03/12 09:29:01;;;;;;;1999.90;999.90;;;;;;;8.11;72.54;97393.09;5016677;28;20057;-65
2021/03/12 09:31:32;;;;;;;1999.90;999.90;;;;;;;8.00;72.78;97398.19;5011500;28;20057;-65
2021/03/12 09:34:00;;;;;;;1999.90;999.90;;;;;;;7.89;73.36;97394.19;5005752;28;20052;-65
2021/03/12 09:36:34;;;;;;;1999.90;999.90;;;;;;;7.99;73.10;97393.81;5016711;28;20531;-65
2021/03/12 09:39:06;;;;;;;1999.90;999.90;;;;;;;7.45;72.06;97397.09;5019743;28;20053;-64
2021/03/12 09:41:38;;;;;;;1999.90;999.90;;;;;;;7.37;72.33;97409.75;5017489;28;20152;-65
2021/03/12 09:44:14;;;;;;;1999.90;999.90;;;;;;;7.32;71.64;97409.13;5019223;28;20441;-64
2021/03/12 09:46:49;;;;;;;1999.90;999.90;;;;;;;7.24;71.09;97410.75;5017428;28;20053;-65
2021/03/12 09:49:35;;;;;;;1999.90;999.90;;;;;;;7.17;71.81;97404.94;5017745;28;20161;-65
2021/03/12 09:52:18;;;;;;;1999.90;999.90;;;;;;;7.02;72.14;97407.06;5014995;28;20544;-64
2021/03/12 09:54:46;;;;;;;1999.90;999.90;;;;;;;7.16;72.86;97428.06;5033242;28;20099;-65
2021/03/12 09:57:21;;;;;;;1999.90;999.90;;;;;;;7.12;72.55;97419.66;5017618;28;20054;-64
2021/03/12 09:59:51;;;;;;;1999.90;999.90;;;;;;;7.44;73.08;97422.19;5020298;28;20050;-65
2021/03/12 10:02:19;;;;;;;1999.90;999.90;;;;;;;7.23;72.80;97423.72;5011709;28;20057;-65
2021/03/12 10:04:55;;;;;;;1999.90;999.90;;;;;;;7.13;73.12;97428.72;5017031;28;20077;-64
2021/03/12 10:07:40;;;;;;;1999.90;999.90;;;;;;;7.36;73.21;97443.09;5010318;28;20049;-64
2021/03/12 10:10:13;;;;;;;1999.90;999.90;;;;;;;7.12;74.19;97435.38;5016539;28;20572;-65
2021/03/12 10:12:41;;;;;;;1999.90;999.90;;;;;;;7.60;74.16;97441.75;5020365;28;20060;-65
2021/03/12 10:15:35;;;;;;;1999.90;999.90;;;;;;;7.19;76.06;97446.66;5020185;28;20049;-65
2021/03/12 10:18:02;;;;;;;1999.90;999.90;;;;;;;7.12;75.97;97449.13;5013289;28;20129;-65
2021/03/12 10:20:33;;;;;;;1999.90;999.90;;;;;;;7.23;76.98;97455.88;5018547;28;20056;-65
2021/03/12 10:23:06;;;;;;;1999.90;999.90;;;;;;;7.52;76.55;97457.13;5014259;28;20057;-65
2021/03/12 10:25:36;;;;;;;1999.90;999.90;;;;;;;7.01;75.64;97456.84;5010467;28;20072;-65
2021/03/12 10:28:20;;;;;;;1999.90;999.90;;;;;;;7.13;74.79;97456.22;5017540;28;20045;-65
2021/03/12 10:30:57;;;;;;;1999.90;999.90;;;;;;;7.42;72.92;97463.78;5017170;28;20194;-65
2021/03/12 10:33:25;;;;;;;1999.90;999.90;;;;;;;7.68;72.21;97466.47;5011415;28;20069;-65
2021/03/12 10:35:53;;;;;;;1999.90;999.90;;;;;;;8.15;70.86;97462.09;5016230;28;20137;-65
2021/03/12 10:38:30;;;;;;;1999.90;999.90;;;;;;;8.53;69.45;97455.75;5012306;28;20045;-65
2021/03/12 10:41:00;;;;;;;1999.90;999.90;;;;;;;8.44;67.85;97464.88;5016489;28;20061;-65
2021/03/12 10:43:34;;;;;;;1999.90;999.90;;;;;;;8.84;64.95;97469.16;5017003;28;20106;-65
2021/03/12 10:46:09;;;;;;;1999.90;999.90;;;;;;;9.00;64.05;97469.34;5017102;28;20509;-66
2021/03/12 10:48:47;;;;;;;1999.90;999.90;;;;;;;9.77;62.33;97463.44;5017435;28;20131;-66
2021/03/12 10:51:15;;;;;;;1999.90;999.90;;;;;;;9.46;62.07;97470.25;5011089;28;20516;-65
2021/03/12 10:53:45;;;;;;;1999.90;999.90;;;;;;;8.86;60.92;97461.38;5018044;28;20072;-65
2021/03/12 10:56:12;;;;;;;1999.90;999.90;;;;;;;9.08;60.20;97462.97;5006055;28;20055;-65
2021/03/12 10:58:38;;;;;;;1999.90;999.90;;;;;;;8.91;60.01;97463.09;5005274;28;20377;-65
2021/03/12 11:01:19;;;;;;;1999.90;999.90;;;;;;;8.87;59.68;97460.19;5004771;28;20054;-65
2021/03/12 11:03:47;;;;;;;1999.90;999.90;;;;;;;8.61;59.58;97465.91;5005211;28;20116;-65
2021/03/12 11:06:16;;;;;;;1999.90;999.90;;;;;;;8.56;59.90;97472.44;5005377;28;20053;-65
2021/03/12 11:08:43;;;;;;;1999.90;999.90;;;;;;;8.99;59.30;97474.06;5004678;28;20049;-65
2021/03/12 11:11:14;;;;;;;1999.90;999.90;;;;;;;8.71;60.35;97476.56;5005224;28;20056;-65
2021/03/12 11:13:41;;;;;;;1999.90;999.90;;;;;;;8.49;59.76;97474.09;5000851;28;20492;-65